Time;durP1;ratioP1;P1;durP2;ratioP2;P2;SDS_P1;SDS_P2;PMS_P1;PMS_P2;Temp;Humidity;BMP_temperature;BMP_pressure;BME280_temperature;BME280_humidity;BME280_pressure;Samples;Min_cycle;Max_cycle;Signal;HPM_P1;HPM_P2
2021/09/30 03:16:30;;;;;;;;;;;;;;;5.07;75.97;100759.94;5242592;22;19928;-77
2021/09/30 03:18:58;;;;;;;;;;;;;;;5.02;76.63;100766.97;5023218;28;19922;-80
2021/09/30 03:24:12;;;;;;;;;;;;;;;5.11;75.51;100756.44;5024699;28;19968;-79
2021/09/30 03:26:37;;;;;;;;;;;;;;;5.25;75.56;100764.25;5022849;28;20261;-79
2021/09/30 03:29:03;;;;;;;;;;;;;;;5.19;76.04;100764.28;5022587;28;19971;-79
2021/09/30 03:31:30;;;;;;;;;;;;;;;5.12;75.79;100766.03;5022591;28;19925;-79
2021/09/30 03:33:56;;;;;;;;;;;;;;;5.27;75.51;100762.47;5023819;28;19948;-79
2021/09/30 03:36:21;;;;;;;;;;;;;;;5.22;75.09;100762.50;5022264;28;20169;-79
2021/09/30 03:38:46;;;;;;;;;;;;;;;5.26;74.89;100756.34;5021800;28;19917;-77
2021/09/30 03:41:12;;;;;;;;;;;;;;;5.27;75.17;100758.06;5023364;28;19917;-79
2021/09/30 03:43:37;;;;;;;;;;;;;;;5.30;75.04;100756.31;5023755;28;19928;-77
2021/09/30 03:46:02;;;;;;;;;;;;;;;5.21;75.05;100752.00;5022109;28;19917;-79
2021/09/30 03:48:27;;;;;;;;;;;;;;;5.34;74.80;100742.28;5022887;28;19929;-79
2021/09/30 03:53:45;;;;;;;;;;;;;;;5.42;74.74;100749.22;5022092;28;19940;-77
2021/09/30 03:56:31;;;;;;;;;;;;;;;5.48;78.77;100758.84;5023199;28;20400;-79
2021/09/30 04:01:40;;;;;;;;;;;;;;;5.92;91.33;100765.53;5023123;28;19928;-80
2021/09/30 04:04:05;;;;;;;;;;;;;;;6.36;96.87;100760.78;5021761;28;19922;-80
2021/09/30 04:06:30;;;;;;;;;;;;;;;6.25;93.67;100766.13;5022596;28;19922;-81
2021/09/30 04:08:57;;;;;;;;;;;;;;;6.22;91.91;100766.16;5021630;28;20364;-80
2021/09/30 04:11:22;;;;;;;;;;;;;;;6.15;91.53;100775.03;5021682;28;19917;-81
2021/09/30 04:13:48;;;;;;;;;;;;;;;5.99;90.11;100775.13;5021169;28;20349;-81
2021/09/30 04:16:13;;;;;;;;;;;;;;;6.00;89.73;100776.91;5020066;28;20019;-80
2021/09/30 04:18:38;;;;;;;;;;;;;;;5.96;89.69;100774.28;5021401;28;19917;-81
2021/09/30 04:21:04;;;;;;;;;;;;;;;5.94;88.95;100782.16;5022608;28;19950;-81
2021/09/30 04:23:29;;;;;;;;;;;;;;;5.92;89.08;100783.06;5021445;28;20261;-80
2021/09/30 04:25:54;;;;;;;;;;;;;;;5.87;88.99;100785.75;5022351;28;19925;-81
2021/09/30 04:28:19;;;;;;;;;;;;;;;5.89;87.85;100783.97;5021299;28;19917;-80
2021/09/30 04:30:45;;;;;;;;;;;;;;;5.92;87.86;100791.84;5021053;28;19917;-81
2021/09/30 04:33:10;;;;;;;;;;;;;;;5.89;87.93;100789.22;5023060;28;20063;-80
2021/09/30 04:35:35;;;;;;;;;;;;;;;5.96;87.88;100785.69;5022622;28;19929;-81
2021/09/30 04:38:01;;;;;;;;;;;;;;;5.97;86.88;100773.44;5020726;28;19957;-80
2021/09/30 04:40:26;;;;;;;;;;;;;;;5.86;86.71;100772.63;5022177;28;19923;-81
2021/09/30 04:42:51;;;;;;;;;;;;;;;5.99;86.41;100779.53;5022646;28;19917;-81
2021/09/30 04:45:16;;;;;;;;;;;;;;;5.97;86.34;100782.19;5020999;28;19944;-80
2021/09/30 04:47:42;;;;;;;;;;;;;;;5.89;86.74;100790.97;5021904;28;19921;-80
2021/09/30 04:50:07;;;;;;;;;;;;;;;5.90;86.53;100790.97;5022146;28;20356;-81
2021/09/30 04:52:32;;;;;;;;;;;;;;;5.98;86.44;100794.47;5022786;28;19980;-81
2021/09/30 07:48:08;;;;;;;;;;;;;;;7.21;82.46;100870.50;5006606;28;19933;-79
2021/09/30 07:50:34;;;;;;;;;;;;;;;7.23;82.30;100868.72;5013393;28;20284;-81
2021/09/30 07:52:59;;;;;;;;;;;;;;;7.26;81.80;100863.44;4995807;28;19914;-80
2021/09/30 07:55:25;;;;;;;;;;;;;;;7.32;82.34;100865.97;5012398;28;19925;-81
2021/09/30 07:57:51;;;;;;;;;;;;;;;7.32;82.10;100873.88;5013345;28;19918;-80
2021/09/30 08:00:16;;;;;;;;;;;;;;;7.37;82.55;100856.25;5012004;28;19964;-81
2021/09/30 08:02:41;;;;;;;;;;;;;;;7.25;81.95;100864.31;5013238;28;20261;-80
2021/09/30 08:05:07;;;;;;;;;;;;;;;7.24;81.37;100866.09;5013223;28;19975;-81
2021/09/30 08:07:32;;;;;;;;;;;;;;;7.23;81.58;100856.41;5012984;28;19922;-80
2021/09/30 08:09:58;;;;;;;;;;;;;;;7.26;81.67;100847.63;5013201;28;19921;-79
2021/09/30 08:12:25;;;;;;;;;;;;;;;7.33;82.58;100849.25;4995408;28;20287;-80
2021/09/30 08:14:50;;;;;;;;;;;;;;;7.46;81.89;100840.28;5012049;28;19918;-80
2021/09/30 08:17:16;;;;;;;;;;;;;;;7.38;82.04;100842.16;5012666;28;20288;-80
2021/09/30 08:19:42;;;;;;;;;;;;;;;7.37;82.11;100840.44;5012927;28;20264;-81
2021/09/30 08:22:07;;;;;;;;;;;;;;;7.45;82.56;100845.59;5012937;28;19918;-81
2021/09/30 08:24:32;;;;;;;;;;;;;;;7.35;82.81;100842.19;5012662;28;20280;-80
2021/09/30 08:26:58;;;;;;;;;;;;;;;7.36;84.23;100849.22;5012894;28;20367;-80
2021/09/30 08:29:23;;;;;;;;;;;;;;;7.36;83.20;100837.81;5012616;28;20292;-80
2021/09/30 08:31:48;;;;;;;;;;;;;;;7.39;83.64;100845.69;5011410;28;20368;-80
2021/09/30 08:34:13;;;;;;;;;;;;;;;7.43;83.56;100850.88;5012584;28;20280;-80
2021/09/30 08:36:39;;;;;;;;;;;;;;;7.48;83.38;100852.59;5012647;28;19921;-81
2021/09/30 08:39:06;;;;;;;;;;;;;;;7.49;83.80;100849.06;5019472;28;19917;-81
2021/09/30 08:41:32;;;;;;;;;;;;;;;7.50;82.80;100845.53;5012448;28;20012;-80
2021/09/30 08:43:57;;;;;;;;;;;;;;;7.49;83.16;100846.44;5012611;28;20044;-81
2021/09/30 08:46:23;;;;;;;;;;;;;;;7.43;83.52;100839.47;5017768;28;19922;-81
2021/09/30 08:48:48;;;;;;;;;;;;;;;7.50;83.54;100845.53;5011770;28;19986;-80
2021/09/30 08:51:14;;;;;;;;;;;;;;;7.47;83.85;100849.09;5012298;28;19922;-80
2021/09/30 08:53:42;;;;;;;;;;;;;;;7.46;83.99;100842.94;4994431;28;20369;-80
2021/09/30 08:56:08;;;;;;;;;;;;;;;7.53;85.54;100840.22;5012340;28;19917;-80
2021/09/30 08:58:34;;;;;;;;;;;;;;;7.49;83.84;100841.16;5012195;28;20373;-80
2021/09/30 09:01:00;;;;;;;;;;;;;;;7.51;83.85;100840.22;5010005;28;19918;-80
2021/09/30 09:03:41;;;;;;;;;;;;;;;7.50;83.84;100840.25;5012085;28;19964;-80
2021/09/30 09:06:07;;;;;;;;;;;;;;;7.52;84.21;100843.75;5012259;28;19930;-81
2021/09/30 09:08:33;;;;;;;;;;;;;;;7.53;83.77;100835.84;5011967;28;19922;-80
2021/09/30 09:10:59;;;;;;;;;;;;;;;7.60;83.68;100836.63;5012031;28;19972;-80
2021/09/30 09:13:25;;;;;;;;;;;;;;;7.55;84.64;100843.72;5011832;28;19914;-80
2021/09/30 09:15:54;;;;;;;;;;;;;;;7.58;84.35;100836.63;5009969;28;19918;-81
2021/09/30 09:18:27;;;;;;;;;;;;;;;7.57;84.78;100837.50;5012170;28;20280;-80
2021/09/30 09:21:09;;;;;;;;;;;;;;;7.59;84.49;100840.13;5011544;28;19917;-79
2021/09/30 09:23:53;;;;;;;;;;;;;;;7.60;84.31;100848.03;5011999;28;19948;-80
2021/09/30 09:26:21;;;;;;;;;;;;;;;7.64;83.80;100846.22;5011766;28;19917;-81
2021/09/30 09:29:07;;;;;;;;;;;;;;;7.61;84.15;100843.59;5011269;28;19921;-80
2021/09/30 09:31:43;;;;;;;;;;;;;;;7.68;83.99;100837.38;4999061;28;20012;-81
2021/09/30 09:34:16;;;;;;;;;;;;;;;7.68;84.17;100828.59;5002174;28;19917;-81
2021/09/30 09:36:42;;;;;;;;;;;;;;;7.72;84.30;100831.19;5000919;28;19961;-81
2021/09/30 09:39:08;;;;;;;;;;;;;;;7.68;84.20;100825.97;5002173;28;19957;-80
2021/09/30 09:41:35;;;;;;;;;;;;;;;7.72;84.11;100832.91;4999670;28;19928;-81
2021/09/30 09:44:02;;;;;;;;;;;;;;;7.73;84.01;100817.06;5002015;28;19965;-80
2021/09/30 09:46:28;;;;;;;;;;;;;;;7.73;83.93;100813.56;5015796;28;19929;-80
2021/09/30 09:48:55;;;;;;;;;;;;;;;7.75;83.86;100814.41;5000974;28;19944;-82
2021/09/30 09:51:20;;;;;;;;;;;;;;;7.82;83.84;100816.06;5008543;28;20056;-81
2021/09/30 09:53:46;;;;;;;;;;;;;;;7.89;83.93;100812.44;5001903;28;20355;-80
2021/09/30 09:56:11;;;;;;;;;;;;;;;7.91;84.04;100809.75;5000698;28;20450;-81
2021/09/30 09:58:43;;;;;;;;;;;;;;;7.88;84.49;100805.44;5016456;28;19933;-81
2021/09/30 10:01:09;;;;;;;;;;;;;;;7.84;83.47;100805.50;5002043;28;20016;-81
2021/09/30 10:03:34;;;;;;;;;;;;;;;7.98;86.38;100808.78;5005917;28;20400;-81
2021/09/30 10:06:03;;;;;;;;;;;;;;;7.89;83.41;100801.00;5003645;28;19933;-81
2021/09/30 10:08:29;;;;;;;;;;;;;;;7.90;84.07;100798.34;5019282;28;19940;-81
2021/09/30 10:10:56;;;;;;;;;;;;;;;8.00;83.68;100794.66;5005249;28;19921;-81
2021/09/30 10:13:24;;;;;;;;;;;;;;;7.95;83.10;100796.50;5004225;28;20292;-81
2021/09/30 10:15:53;;;;;;;;;;;;;;;7.96;83.30;100789.44;5004182;28;19930;-80
2021/09/30 10:18:20;;;;;;;;;;;;;;;7.96;83.12;100792.97;5004794;28;20327;-81
2021/09/30 10:20:45;;;;;;;;;;;;;;;7.94;83.66;100796.53;5004405;28;19925;-81
2021/09/30 10:23:11;;;;;;;;;;;;;;;8.04;85.58;100800.78;5002951;28;19930;-81
2021/09/30 10:25:44;;;;;;;;;;;;;;;8.08;84.57;100791.91;5004375;28;19968;-81
2021/09/30 10:28:09;;;;;;;;;;;;;;;8.03;83.31;100799.03;5004618;28;20064;-80
2021/09/30 10:30:42;;;;;;;;;;;;;;;8.08;83.23;100797.19;5003515;28;19961;-80
2021/09/30 10:33:08;;;;;;;;;;;;;;;8.14;82.81;100786.50;5004614;28;20301;-80
2021/09/30 10:35:35;;;;;;;;;;;;;;;8.05;82.79;100789.31;5004155;28;19922;-80
2021/09/30 10:38:16;;;;;;;;;;;;;;;8.14;83.30;100786.50;5003299;28;20020;-80
2021/09/30 10:40:59;;;;;;;;;;;;;;;8.26;81.83;100789.84;5003907;28;20480;-80
2021/09/30 10:43:25;;;;;;;;;;;;;;;8.21;82.21;100789.06;5005369;28;20453;-80
2021/09/30 10:45:50;;;;;;;;;;;;;;;8.22;81.48;100789.03;5003166;28;19925;-83
2021/09/30 10:48:36;;;;;;;;;;;;;;;8.19;82.17;100789.09;5004046;28;19926;-81
2021/09/30 10:51:12;;;;;;;;;;;;;;;8.19;81.81;100789.09;4992028;28;19925;-82
2021/09/30 10:53:46;;;;;;;;;;;;;;;8.08;82.24;100777.84;5002074;28;19922;-81
2021/09/30 10:56:23;;;;;;;;;;;;;;;8.09;82.23;100776.91;5004583;28;19930;-81
2021/09/30 10:58:49;;;;;;;;;;;;;;;8.11;82.17;100776.00;5001385;28;19925;-81
2021/09/30 11:01:14;;;;;;;;;;;;;;;8.18;82.05;100779.41;5002089;28;19940;-82
2021/09/30 11:03:56;;;;;;;;;;;;;;;8.17;82.71;100786.47;5004875;28;19925;-80
2021/09/30 11:06:22;;;;;;;;;;;;;;;8.09;81.70;100775.16;5003438;28;19921;-80
2021/09/30 11:09:07;;;;;;;;;;;;;;;8.39;84.75;100777.28;5002922;28;19957;-80
2021/09/30 11:11:33;;;;;;;;;;;;;;;8.44;83.91;100770.19;5004010;28;19964;-80
2021/09/30 11:13:58;;;;;;;;;;;;;;;8.22;81.67;100773.19;5003758;28;19953;-81
2021/09/30 11:16:34;;;;;;;;;;;;;;;8.21;81.67;100770.56;5002830;28;19996;-81
2021/09/30 11:19:00;;;;;;;;;;;;;;;8.21;81.60;100765.28;5010100;28;19960;-80
2021/09/30 11:21:29;;;;;;;;;;;;;;;8.20;81.66;100767.06;5004112;28;19918;-80
2021/09/30 11:23:56;;;;;;;;;;;;;;;8.27;80.85;100760.78;5004153;28;20404;-81
2021/09/30 11:26:21;;;;;;;;;;;;;;;8.25;80.88;100764.31;5003880;28;20274;-81
2021/09/30 11:28:47;;;;;;;;;;;;;;;8.29;81.76;100755.47;5002888;28;19948;-81
2021/09/30 11:31:29;;;;;;;;;;;;;;;8.26;81.00;100752.88;5002792;28;19932;-81
2021/09/30 11:33:55;;;;;;;;;;;;;;;8.34;81.32;100753.59;5019438;28;19960;-81
2021/09/30 11:36:28;;;;;;;;;;;;;;;8.28;80.63;100745.78;5003688;28;19918;-80
2021/09/30 11:38:56;;;;;;;;;;;;;;;8.31;80.36;100743.09;5003518;28;19921;-80
2021/09/30 11:41:26;;;;;;;;;;;;;;;8.27;79.99;100731.72;5003995;28;20331;-80
2021/09/30 11:43:51;;;;;;;;;;;;;;;8.31;79.34;100729.88;5003496;28;19964;-80
2021/09/30 11:46:23;;;;;;;;;;;;;;;8.24;79.21;100720.34;5002153;28;19969;-80
2021/09/30 11:48:55;;;;;;;;;;;;;;;8.36;79.38;100707.78;5003547;28;19921;-80
2021/09/30 11:51:28;;;;;;;;;;;;;;;8.39;79.72;100708.63;5003411;28;19917;-80
2021/09/30 11:53:53;;;;;;;;;;;;;;;8.29;79.26;100705.28;5002016;28;19953;-81
2021/09/30 11:56:18;;;;;;;;;;;;;;;8.32;79.32;100697.31;5002201;28;20404;-80
2021/09/30 11:58:56;;;;;;;;;;;;;;;8.42;78.70;100695.38;5003349;28;19921;-81
2021/09/30 12:01:31;;;;;;;;;;;;;;;8.56;78.26;100692.50;5002565;28;20004;-80
2021/09/30 12:03:57;;;;;;;;;;;;;;;8.41;78.13;100678.66;5001595;28;19922;-80
2021/09/30 12:06:35;;;;;;;;;;;;;;;8.39;78.99;100683.06;5003553;28;20294;-80
2021/09/30 12:09:00;;;;;;;;;;;;;;;8.45;78.67;100679.50;5003121;28;20328;-81
2021/09/30 12:11:28;;;;;;;;;;;;;;;8.43;78.67;100671.59;5003647;28;19921;-80
2021/09/30 12:13:58;;;;;;;;;;;;;;;8.45;78.11;100664.50;5002816;28;19917;-79
2021/09/30 12:16:23;;;;;;;;;;;;;;;8.37;78.41;100653.19;5000871;28;19921;-81
2021/09/30 12:18:57;;;;;;;;;;;;;;;8.47;78.40;100652.16;5018352;28;20258;-79
2021/09/30 12:21:32;;;;;;;;;;;;;;;8.37;78.87;100650.56;5003344;28;20343;-80
2021/09/30 12:23:58;;;;;;;;;;;;;;;8.44;78.94;100651.31;5008812;28;20288;-79
2021/09/30 12:26:23;;;;;;;;;;;;;;;8.35;78.42;100652.38;5003254;28;19917;-79
2021/09/30 12:28:51;;;;;;;;;;;;;;;8.35;78.52;100657.66;5003155;28;19918;-79
2021/09/30 12:31:16;;;;;;;;;;;;;;;8.37;78.65;100655.84;5001357;28;19918;-81
2021/09/30 12:33:41;;;;;;;;;;;;;;;8.43;77.84;100657.50;5002769;28;19944;-80
2021/09/30 12:36:07;;;;;;;;;;;;;;;8.45;77.70;100653.94;5003166;28;19928;-80
2021/09/30 12:38:33;;;;;;;;;;;;;;;8.39;78.62;100643.47;5002745;28;19956;-80
2021/09/30 12:41:05;;;;;;;;;;;;;;;8.41;78.40;100654.88;5002639;28;19976;-79
2021/09/30 12:43:31;;;;;;;;;;;;;;;8.41;78.28;100651.34;5003072;28;19918;-79
2021/09/30 12:45:58;;;;;;;;;;;;;;;8.42;78.14;100646.03;5001224;28;19922;-80
2021/09/30 12:48:24;;;;;;;;;;;;;;;8.42;78.59;100653.09;5002458;28;20012;-79
2021/09/30 12:50:56;;;;;;;;;;;;;;;8.38;78.38;100652.31;5002545;28;20377;-79
2021/09/30 12:53:22;;;;;;;;;;;;;;;8.38;77.93;100652.31;5002820;28;19928;-79
2021/09/30 12:55:49;;;;;;;;;;;;;;;8.39;77.89;100653.16;5002889;28;19922;-80
2021/09/30 12:58:34;;;;;;;;;;;;;;;8.36;77.91;100644.41;5001154;28;19918;-78
2021/09/30 13:01:18;;;;;;;;;;;;;;;8.32;78.11;100639.22;5000531;28;19921;-78
2021/09/30 13:03:43;;;;;;;;;;;;;;;8.31;77.78;100640.13;5002746;28;20388;-80
2021/09/30 13:06:08;;;;;;;;;;;;;;;8.32;78.22;100637.44;5002916;28;19968;-78
2021/09/30 13:08:34;;;;;;;;;;;;;;;8.34;77.72;100635.66;5001036;28;20354;-79
2021/09/30 13:11:18;;;;;;;;;;;;;;;8.30;77.85;100636.63;5001923;28;19925;-80
2021/09/30 13:13:43;;;;;;;;;;;;;;;8.32;77.82;100626.03;5002029;28;19972;-78
2021/09/30 13:16:21;;;;;;;;;;;;;;;8.35;77.81;100628.59;5001612;28;19921;-78
2021/09/30 13:18:47;;;;;;;;;;;;;;;8.32;77.75;100624.25;5002437;28;19921;-80
2021/09/30 13:21:12;;;;;;;;;;;;;;;8.37;77.82;100624.16;5002356;28;19917;-78
2021/09/30 13:23:38;;;;;;;;;;;;;;;8.33;77.71;100623.34;5002187;28;19917;-79
2021/09/30 13:26:03;;;;;;;;;;;;;;;8.39;77.50;100626.75;5001914;28;19921;-79
2021/09/30 13:28:29;;;;;;;;;;;;;;;8.34;77.53;100624.22;5002459;28;19918;-79
2021/09/30 13:30:55;;;;;;;;;;;;;;;8.39;78.16;100616.19;5000923;28;19988;-79
2021/09/30 13:33:20;;;;;;;;;;;;;;;8.38;77.72;100610.06;5008803;28;19921;-79
2021/09/30 13:35:45;;;;;;;;;;;;;;;8.39;77.17;100610.91;5003593;28;20388;-79
2021/09/30 13:38:10;;;;;;;;;;;;;;;8.40;77.39;100602.97;5006504;28;19922;-81
2021/09/30 13:40:36;;;;;;;;;;;;;;;8.38;77.29;100596.84;5005930;28;19917;-80
2021/09/30 13:43:01;;;;;;;;;;;;;;;8.39;77.49;100592.44;5005715;28;19929;-79
2021/09/30 13:45:27;;;;;;;;;;;;;;;8.46;78.21;100591.44;5004600;28;19920;-80
2021/09/30 13:47:52;;;;;;;;;;;;;;;8.41;77.59;100582.69;5006177;28;20468;-79
2021/09/30 13:50:19;;;;;;;;;;;;;;;8.41;77.79;100578.31;5006086;28;20401;-80
2021/09/30 13:52:45;;;;;;;;;;;;;;;8.38;77.91;100575.72;5005713;28;19917;-78
2021/09/30 13:55:11;;;;;;;;;;;;;;;8.43;77.14;100568.59;5005631;28;19925;-79
2021/09/30 13:57:37;;;;;;;;;;;;;;;8.42;77.15;100564.16;5005891;28;19922;-78
2021/09/30 14:00:07;;;;;;;;;;;;;;;8.43;77.52;100552.75;5004164;28;19918;-79
2021/09/30 14:02:33;;;;;;;;;;;;;;;8.42;77.59;100543.03;5005563;28;20025;-79
2021/09/30 14:04:58;;;;;;;;;;;;;;;8.41;77.45;100545.72;5005571;28;20008;-78
2021/09/30 14:07:23;;;;;;;;;;;;;;;8.41;77.54;100546.59;5006046;28;19976;-78
2021/09/30 14:09:49;;;;;;;;;;;;;;;8.39;77.37;100545.75;5005482;28;19918;-81
2021/09/30 14:12:14;;;;;;;;;;;;;;;8.41;77.21;100546.59;5005264;28;20288;-79
2021/09/30 14:14:39;;;;;;;;;;;;;;;8.46;77.15;100550.03;5005474;28;19918;-81
2021/09/30 14:17:05;;;;;;;;;;;;;;;8.41;77.46;100543.97;5004389;28;19921;-78
2021/09/30 14:19:30;;;;;;;;;;;;;;;8.43;77.42;100547.47;5005464;28;19924;-79
2021/09/30 14:21:58;;;;;;;;;;;;;;;8.43;77.31;100544.81;5005186;28;19922;-79
2021/09/30 14:24:25;;;;;;;;;;;;;;;8.45;77.02;100548.28;5003998;28;19917;-81
2021/09/30 14:26:50;;;;;;;;;;;;;;;8.42;76.96;100547.47;5005127;28;19918;-81
2021/09/30 14:29:16;;;;;;;;;;;;;;;8.40;76.82;100539.56;5004895;28;19928;-79
2021/09/30 14:31:41;;;;;;;;;;;;;;;8.45;76.81;100543.00;5003952;28;19921;-80
2021/09/30 14:34:06;;;;;;;;;;;;;;;8.45;76.48;100540.38;5005178;28;19924;-79
2021/09/30 14:36:32;;;;;;;;;;;;;;;8.46;76.81;100528.91;5005120;28;19922;-79
2021/09/30 14:38:57;;;;;;;;;;;;;;;8.47;76.29;100530.66;5005116;28;19944;-79
2021/09/30 14:41:24;;;;;;;;;;;;;;;8.46;76.43;100525.41;5005093;28;19969;-80
2021/09/30 14:43:49;;;;;;;;;;;;;;;8.52;76.28;100520.84;5003474;28;19918;-80
2021/09/30 14:46:17;;;;;;;;;;;;;;;8.51;76.31;100521.75;5002758;28;19924;-79
2021/09/30 14:48:42;;;;;;;;;;;;;;;8.53;76.47;100519.06;5003656;28;19929;-79
2021/09/30 14:51:10;;;;;;;;;;;;;;;8.52;76.26;100518.22;5004980;28;19921;-79
2021/09/30 14:53:35;;;;;;;;;;;;;;;8.55;76.27;100511.97;5004961;28;19920;-79
2021/09/30 14:56:01;;;;;;;;;;;;;;;8.60;76.39;100522.44;5004612;28;19921;-80
2021/09/30 14:58:26;;;;;;;;;;;;;;;8.54;76.36;100516.41;5004169;28;19917;-78
2021/09/30 15:00:52;;;;;;;;;;;;;;;8.55;76.50;100511.97;5003101;28;19924;-80
2021/09/30 15:03:17;;;;;;;;;;;;;;;8.59;76.34;100518.94;5004958;28;19929;-79
2021/09/30 15:05:42;;;;;;;;;;;;;;;8.60;76.11;100514.50;5003146;28;19917;-80
2021/09/30 15:08:07;;;;;;;;;;;;;;;8.52;76.35;100510.28;5003333;28;19945;-80
2021/09/30 15:10:33;;;;;;;;;;;;;;;8.56;76.22;100508.44;5004567;28;20325;-81
2021/09/30 15:12:58;;;;;;;;;;;;;;;8.62;76.34;100512.72;5004009;28;20376;-80
2021/09/30 15:15:24;;;;;;;;;;;;;;;8.56;76.42;100510.22;5002924;28;20434;-81
2021/09/30 15:23:01;;;;;;;;;;;;;;;8.63;75.92;100493.31;5004589;28;19963;-80
2021/09/30 15:25:28;;;;;;;;;;;;;;;8.71;75.87;100486.97;5004171;28;19953;-80
2021/09/30 15:27:53;;;;;;;;;;;;;;;8.61;76.15;100501.28;5004289;28;19922;-81
2021/09/30 15:30:19;;;;;;;;;;;;;;;8.63;76.51;100490.66;5002623;28;19992;-80
2021/09/30 15:32:45;;;;;;;;;;;;;;;8.63;76.33;100495.94;5003823;28;19918;-80
2021/09/30 15:35:10;;;;;;;;;;;;;;;8.61;76.30;100496.00;5003614;28;19928;-80
2021/09/30 15:37:36;;;;;;;;;;;;;;;8.64;76.18;100489.78;5003909;28;20373;-80
2021/09/30 15:40:02;;;;;;;;;;;;;;;8.60;76.13;100483.69;5003721;28;19988;-80
2021/09/30 15:42:28;;;;;;;;;;;;;;;8.64;76.27;100481.84;5004058;28;20000;-79
2021/09/30 15:44:56;;;;;;;;;;;;;;;8.66;76.20;100477.38;5002563;28;20029;-79
2021/09/30 15:47:22;;;;;;;;;;;;;;;8.68;76.34;100475.56;5001612;28;20368;-79
2021/09/30 15:49:47;;;;;;;;;;;;;;;8.65;76.13;100481.81;5003568;28;19918;-80
2021/09/30 15:52:12;;;;;;;;;;;;;;;8.67;76.40;100473.84;5003993;28;19921;-80
2021/09/30 15:54:37;;;;;;;;;;;;;;;8.70;76.27;100473.78;5004039;28;19957;-80
2021/09/30 15:57:03;;;;;;;;;;;;;;;8.62;76.17;100465.19;5003326;28;19980;-80
2021/09/30 15:59:28;;;;;;;;;;;;;;;8.78;76.07;100470.97;5003653;28;20016;-80
2021/09/30 16:01:53;;;;;;;;;;;;;;;8.81;75.77;100474.38;5002267;28;19983;-80
2021/09/30 16:04:19;;;;;;;;;;;;;;;8.82;75.80;100473.50;5003386;28;20432;-80
2021/09/30 16:06:44;;;;;;;;;;;;;;;8.90;75.51;100466.22;5003210;28;19918;-80
2021/09/30 16:09:09;;;;;;;;;;;;;;;8.89;75.79;100474.19;5003292;28;19924;-80
2021/09/30 16:11:35;;;;;;;;;;;;;;;8.90;75.67;100468.00;5001475;28;19922;-80
2021/09/30 16:14:00;;;;;;;;;;;;;;;8.90;75.59;100463.59;5003072;28;20035;-80
2021/09/30 16:16:25;;;;;;;;;;;;;;;8.88;75.02;100460.09;5001803;28;19921;-80
2021/09/30 16:18:51;;;;;;;;;;;;;;;8.93;74.75;100456.47;5003497;28;20122;-80
2021/09/30 16:21:16;;;;;;;;;;;;;;;8.82;75.05;100456.75;5002491;28;20020;-80
2021/09/30 16:23:42;;;;;;;;;;;;;;;8.88;75.56;100462.75;5002830;28;19922;-80
2021/09/30 16:26:07;;;;;;;;;;;;;;;8.85;75.42;100468.09;5001618;28;19922;-79
2021/09/30 16:28:33;;;;;;;;;;;;;;;8.82;75.41;100460.28;5002707;28;19918;-80
2021/09/30 16:30:58;;;;;;;;;;;;;;;8.82;75.41;100462.91;5001551;28;19924;-80
2021/09/30 16:33:26;;;;;;;;;;;;;;;8.85;75.41;100472.53;5002695;28;20729;-80
2021/09/30 16:35:55;;;;;;;;;;;;;;;8.86;75.65;100467.19;5002932;28;20432;-80
2021/09/30 16:38:22;;;;;;;;;;;;;;;8.79;75.63;100463.00;5002066;28;19921;-80
2021/09/30 16:40:49;;;;;;;;;;;;;;;8.74;75.78;100470.13;5016153;28;19925;-79
2021/09/30 16:43:15;;;;;;;;;;;;;;;8.77;76.32;100459.50;5001865;28;19972;-79
2021/09/30 16:45:40;;;;;;;;;;;;;;;8.73;75.65;100457.84;5001435;28;19929;-79
2021/09/30 16:48:06;;;;;;;;;;;;;;;8.75;75.75;100452.53;5002083;28;19936;-79
2021/09/30 16:50:31;;;;;;;;;;;;;;;8.79;75.77;100462.09;5001398;28;19917;-79
2021/09/30 16:52:57;;;;;;;;;;;;;;;8.74;75.57;100470.13;5016510;28;19926;-79
2021/09/30 16:55:22;;;;;;;;;;;;;;;8.80;75.46;100467.34;5002567;28;19937;-79
2021/09/30 16:57:47;;;;;;;;;;;;;;;8.85;75.22;100464.59;5001246;28;19921;-79
2021/09/30 17:00:17;;;;;;;;;;;;;;;8.84;75.70;100466.38;5001146;28;19921;-80
2021/09/30 17:02:42;;;;;;;;;;;;;;;8.86;75.40;100458.41;5002520;28;19922;-80
2021/09/30 17:05:08;;;;;;;;;;;;;;;8.83;75.35;100469.06;5001262;28;19921;-79
2021/09/30 17:07:34;;;;;;;;;;;;;;;8.85;75.47;100456.66;4999803;28;20399;-80
2021/09/30 17:09:59;;;;;;;;;;;;;;;8.87;75.30;100468.94;5001581;28;19922;-79
2021/09/30 17:12:24;;;;;;;;;;;;;;;8.91;75.51;100473.22;5001152;28;19968;-80
2021/09/30 17:14:49;;;;;;;;;;;;;;;8.86;75.57;100469.84;5000971;28;19928;-79
2021/09/30 17:17:15;;;;;;;;;;;;;;;8.85;75.80;100468.09;4999953;28;20384;-79
2021/09/30 17:19:40;;;;;;;;;;;;;;;8.77;75.73;100467.44;5002007;28;19933;-79
2021/09/30 17:22:06;;;;;;;;;;;;;;;8.82;75.78;100462.03;4999273;28;19965;-79
2021/09/30 17:24:32;;;;;;;;;;;;;;;8.81;75.73;100461.16;5002272;28;19921;-80
2021/09/30 17:26:58;;;;;;;;;;;;;;;8.77;75.96;100459.50;5002594;28;19924;-79
2021/09/30 17:29:25;;;;;;;;;;;;;;;8.85;75.89;100452.25;5001273;28;19918;-79
2021/09/30 17:31:51;;;;;;;;;;;;;;;8.81;75.73;100445.31;5000516;28;19928;-79
2021/09/30 17:34:16;;;;;;;;;;;;;;;8.84;76.19;100447.88;5001899;28;19996;-79
2021/09/30 17:36:42;;;;;;;;;;;;;;;8.84;75.74;100450.53;5001891;28;19933;-79
2021/09/30 17:39:07;;;;;;;;;;;;;;;8.79;75.93;100452.41;5002533;28;20444;-80
2021/09/30 17:41:33;;;;;;;;;;;;;;;8.83;75.94;100454.06;5017299;28;20309;-80
2021/09/30 17:43:59;;;;;;;;;;;;;;;8.87;75.93;100449.56;5001832;28;19928;-80
2021/09/30 17:46:25;;;;;;;;;;;;;;;8.84;75.99;100447.88;5000308;28;19926;-80
2021/09/30 17:48:50;;;;;;;;;;;;;;;8.86;75.91;100450.50;5000870;28;19925;-80
2021/09/30 17:51:15;;;;;;;;;;;;;;;8.88;75.69;100452.16;5001933;28;19917;-80
2021/09/30 17:53:41;;;;;;;;;;;;;;;8.87;76.12;100449.56;5002317;28;19914;-80
2021/09/30 17:56:07;;;;;;;;;;;;;;;8.81;76.15;100445.31;4999603;28;20016;-79
2021/09/30 17:58:33;;;;;;;;;;;;;;;8.89;76.04;100437.19;5000693;28;20389;-79
2021/09/30 18:00:58;;;;;;;;;;;;;;;8.87;76.14;100447.81;5000813;28;19981;-81
2021/09/30 18:03:23;;;;;;;;;;;;;;;8.88;76.17;100449.53;5001852;28;20270;-80
2021/09/30 18:05:49;;;;;;;;;;;;;;;8.98;76.34;100446.66;5000070;28;20399;-80
2021/09/30 18:08:16;;;;;;;;;;;;;;;8.97;76.01;100437.00;5001320;28;19922;-79
2021/09/30 18:10:42;;;;;;;;;;;;;;;8.99;76.34;100443.13;5001093;28;20293;-80
2021/09/30 18:13:08;;;;;;;;;;;;;;;8.90;76.13;100450.38;5001917;28;19913;-80
2021/09/30 18:15:33;;;;;;;;;;;;;;;8.97;76.14;100444.94;5000415;28;19940;-80
2021/09/30 18:17:58;;;;;;;;;;;;;;;8.97;76.43;100439.66;5001718;28;19917;-80
2021/09/30 18:20:24;;;;;;;;;;;;;;;8.96;76.35;100441.41;5001800;28;19940;-80
2021/09/30 18:22:49;;;;;;;;;;;;;;;8.94;76.50;100445.00;5003776;28;20388;-80
2021/09/30 18:25:15;;;;;;;;;;;;;;;8.98;76.17;100441.38;5005524;28;20004;-80
2021/09/30 18:27:42;;;;;;;;;;;;;;;8.96;75.93;100444.06;5002549;28;20014;-79
2021/09/30 18:30:07;;;;;;;;;;;;;;;8.95;76.05;100454.66;5003249;28;19918;-80
2021/09/30 18:32:33;;;;;;;;;;;;;;;8.93;76.27;100457.34;5003761;28;19937;-78
2021/09/30 18:34:58;;;;;;;;;;;;;;;8.94;76.04;100455.59;5005098;28;19922;-80
2021/09/30 18:37:23;;;;;;;;;;;;;;;8.92;76.47;100455.63;5004711;28;19928;-79
2021/09/30 18:39:49;;;;;;;;;;;;;;;8.94;76.29;100458.22;5003542;28;19929;-79
2021/09/30 18:42:14;;;;;;;;;;;;;;;8.93;76.62;100453.84;5003552;28;19933;-78
2021/09/30 18:44:41;;;;;;;;;;;;;;;9.00;76.45;100450.13;5004375;28;20015;-80
2021/09/30 18:47:07;;;;;;;;;;;;;;;8.98;76.27;100450.16;5003127;28;20369;-79
2021/09/30 18:49:32;;;;;;;;;;;;;;;9.01;76.38;100444.78;5004142;28;20019;-80
2021/09/30 18:51:58;;;;;;;;;;;;;;;8.95;76.53;100452.00;5003169;28;19925;-79
2021/09/30 18:54:24;;;;;;;;;;;;;;;8.97;76.58;100455.50;5002052;28;19924;-80
2021/09/30 18:56:50;;;;;;;;;;;;;;;8.98;76.55;100458.09;5004710;28;19918;-79
2021/09/30 18:59:15;;;;;;;;;;;;;;;8.97;76.87;100445.78;5003752;28;20353;-78
2021/09/30 19:01:40;;;;;;;;;;;;;;;9.01;76.37;100443.94;5003387;28;19922;-79
2021/09/30 19:04:06;;;;;;;;;;;;;;;9.00;76.54;100444.81;5002824;28;19928;-79
2021/09/30 19:06:31;;;;;;;;;;;;;;;8.99;76.60;100445.75;5004347;28;19925;-78
2021/09/30 19:08:58;;;;;;;;;;;;;;;8.97;76.48;100434.38;5004636;28;20043;-79